Kendallville, Iowa
Current Conditions -  °F | °C
As of 6:16 AM on Friday 24 Oct 2014 (Local Time) from KFKA Reporting Station
Moderate Fog Moderate Fog  
Wind Chill: 44°   Ceiling: 200
Heat Index: 46°   Visibility: 0.25mi
Dew Point: 46°   Wind: 6mph
Humidity: 97%   Direction: 170°S
Pressure: 29.99"   Gusts: NA
Location:  43.363°N, 92.1685°W
Report Text: KFKA 241116Z AUTO 17005KT 1/4SM FG OVC002 08/08 A2999 RMK AO2 T00800076
Loading
Personal Weather Stations






























Interactive Weather Map New forecast layout! Learn more

10-Day Weather Forecast

Advertisements
Track Severe Weather on mobile